createdAt,value
2019-05-12T00:00:39.353Z,91.60
2019-05-12T00:03:08.551Z,91.90
2019-05-12T00:05:40.822Z,92.00
2019-05-12T00:08:10.759Z,91.90
2019-05-12T00:10:39.358Z,91.90
2019-05-12T00:13:08.522Z,91.80
2019-05-12T00:15:38.452Z,92.00
2019-05-12T00:18:09.057Z,92.40
2019-05-12T00:20:38.598Z,92.50
2019-05-12T00:23:23.101Z,93.10
2019-05-12T00:25:38.711Z,93.00
2019-05-12T00:28:07.926Z,93.30
2019-05-12T00:30:39.000Z,93.40
2019-05-12T00:33:09.288Z,93.50
2019-05-12T00:35:38.582Z,93.70
2019-05-12T00:38:08.952Z,93.50
2019-05-12T00:40:39.213Z,93.40
2019-05-12T00:43:10.578Z,93.40
2019-05-12T00:45:39.969Z,93.30
2019-05-12T00:48:09.389Z,93.30
2019-05-12T00:50:39.119Z,93.20
2019-05-12T00:53:08.966Z,93.20
2019-05-12T00:55:38.419Z,93.00
2019-05-12T00:58:08.464Z,93.10
2019-05-12T01:00:40.532Z,93.60
2019-05-12T01:03:08.813Z,93.70
2019-05-12T01:05:38.388Z,93.80
2019-05-12T01:08:08.908Z,93.80
2019-05-12T01:10:38.922Z,93.80
2019-05-12T01:13:08.813Z,93.70
2019-05-12T01:15:38.170Z,93.80
2019-05-12T01:18:09.294Z,94.00
2019-05-12T01:20:38.851Z,93.80
2019-05-12T01:23:09.475Z,93.80
2019-05-12T01:25:39.612Z,93.70
2019-05-12T01:28:08.994Z,93.80
2019-05-12T01:30:39.047Z,93.70
2019-05-12T01:33:08.704Z,93.70
2019-05-12T01:35:38.746Z,93.50
2019-05-12T01:38:08.127Z,93.40
2019-05-12T01:40:39.365Z,93.30
2019-05-12T01:43:08.475Z,93.10
2019-05-12T01:45:38.078Z,93.00
2019-05-12T01:48:08.905Z,93.00
2019-05-12T01:50:38.680Z,93.00
2019-05-12T01:53:08.281Z,93.10
2019-05-12T01:55:38.634Z,92.70
2019-05-12T01:58:08.853Z,92.70
2019-05-12T02:00:38.890Z,92.80
2019-05-12T02:03:08.983Z,92.60
2019-05-12T02:05:39.912Z,92.20
2019-05-12T02:08:10.146Z,92.10
2019-05-12T02:10:39.054Z,92.10
2019-05-12T02:13:08.146Z,91.90
2019-05-12T02:15:38.291Z,91.60
2019-05-12T02:18:09.065Z,91.20
2019-05-12T02:20:38.054Z,91.10
2019-05-12T02:23:09.010Z,90.90
2019-05-12T02:25:38.354Z,90.80
2019-05-12T02:28:09.289Z,91.00
2019-05-12T02:30:41.567Z,90.60
2019-05-12T02:33:07.884Z,90.70
2019-05-12T02:35:36.540Z,90.50
2019-05-12T02:38:05.524Z,90.60
2019-05-12T02:40:35.244Z,90.90
2019-05-12T02:43:06.704Z,91.10
2019-05-12T02:45:36.064Z,90.90
2019-05-12T02:48:05.697Z,90.90
2019-05-12T02:50:37.387Z,90.80
2019-05-12T02:53:06.888Z,90.90
2019-05-12T02:55:36.189Z,90.30
2019-05-12T02:58:06.124Z,90.00
2019-05-12T03:00:36.478Z,90.50
2019-05-12T03:03:07.691Z,90.50
2019-05-12T03:05:37.913Z,90.90
2019-05-12T03:08:06.527Z,91.00
2019-05-12T03:10:36.494Z,91.00
2019-05-12T03:13:06.743Z,91.10
2019-05-12T03:15:37.329Z,90.70
2019-05-12T03:18:06.758Z,90.60
2019-05-12T03:20:35.995Z,90.30
2019-05-12T03:23:06.344Z,90.80
2019-05-12T03:25:36.449Z,90.60
2019-05-12T03:28:08.776Z,91.10
2019-05-12T03:30:39.194Z,91.40
2019-05-12T03:33:09.511Z,91.60
2019-05-12T03:35:42.858Z,91.80
2019-05-12T03:38:07.556Z,91.90
2019-05-12T03:40:38.595Z,92.10
2019-05-12T03:43:06.499Z,92.20
2019-05-12T03:45:36.205Z,92.20
2019-05-12T03:48:05.791Z,92.30
2019-05-12T03:50:35.640Z,92.80
2019-05-12T03:53:09.966Z,92.40
2019-05-12T03:55:41.542Z,92.50
2019-05-12T03:58:06.433Z,92.30
2019-05-12T04:00:36.219Z,92.30
2019-05-12T04:03:05.698Z,92.30
2019-05-12T04:05:35.767Z,92.40
2019-05-12T04:08:06.005Z,92.20
2019-05-12T04:10:39.523Z,92.20
2019-05-12T04:13:08.116Z,92.10
2019-05-12T04:15:36.684Z,92.20
2019-05-12T04:18:06.127Z,91.90
2019-05-12T04:20:36.011Z,91.90
2019-05-12T04:23:06.179Z,91.60
2019-05-12T04:25:47.801Z,91.30
2019-05-12T04:28:05.302Z,90.90
2019-05-12T04:30:35.447Z,90.50
2019-05-12T04:33:05.193Z,90.20
2019-05-12T04:35:35.118Z,89.30
2019-05-12T04:38:05.059Z,87.90
2019-05-12T04:40:36.069Z,87.10
2019-05-12T04:43:06.111Z,85.50
2019-05-12T04:45:35.523Z,84.60
2019-05-12T04:48:06.057Z,85.20
2019-05-12T04:50:35.984Z,85.20
2019-05-12T04:53:06.560Z,84.80
2019-05-12T04:55:36.354Z,84.90
2019-05-12T04:58:05.686Z,85.20
2019-05-12T05:00:35.559Z,84.90
2019-05-12T05:03:05.680Z,84.40
2019-05-12T05:05:35.969Z,83.30
2019-05-12T05:08:05.165Z,82.90
2019-05-12T05:10:35.970Z,82.90
2019-05-12T05:13:06.081Z,82.80
2019-05-12T05:15:35.477Z,83.30
2019-05-12T05:18:06.205Z,82.30
2019-05-12T05:20:34.838Z,83.10
2019-05-12T05:23:04.104Z,83.10
2019-05-12T05:25:34.930Z,84.00
2019-05-12T05:28:04.629Z,84.40
2019-05-12T05:30:34.146Z,83.60
2019-05-12T05:33:04.479Z,84.20
2019-05-12T05:35:39.630Z,84.10
2019-05-12T05:38:05.546Z,83.70
2019-05-12T05:40:35.848Z,83.20
2019-05-12T05:43:12.746Z,82.60
2019-05-12T05:45:35.388Z,82.30
2019-05-12T05:48:09.426Z,82.60
2019-05-12T05:50:34.900Z,84.40
2019-05-12T05:53:04.115Z,85.00
2019-05-12T05:55:34.406Z,86.00
2019-05-12T05:58:07.847Z,86.70
2019-05-12T06:00:35.120Z,87.20
2019-05-12T06:03:05.386Z,88.10
2019-05-12T06:05:36.470Z,88.70
2019-05-12T06:08:04.515Z,86.80
2019-05-12T06:10:36.162Z,85.80
2019-05-12T06:13:04.043Z,85.50
2019-05-12T06:15:38.172Z,84.00
2019-05-12T06:18:03.694Z,84.40
2019-05-12T06:20:37.435Z,82.50
2019-05-12T06:23:04.389Z,84.70
2019-05-12T06:25:46.186Z,84.80
2019-05-12T06:28:08.526Z,84.50
2019-05-12T06:30:43.420Z,84.20
2019-05-12T06:33:05.261Z,83.00
2019-05-12T06:35:37.470Z,82.30
2019-05-12T06:38:05.148Z,83.60
2019-05-12T06:40:40.450Z,84.60
2019-05-12T06:43:04.739Z,83.00
2019-05-12T06:45:41.725Z,83.60
2019-05-12T06:48:04.422Z,82.30
2019-05-12T06:50:38.895Z,83.60
2019-05-12T06:53:05.035Z,82.20
2019-05-12T06:55:39.162Z,82.40
2019-05-12T06:58:05.016Z,81.60
2019-05-12T07:00:35.181Z,80.10
2019-05-12T07:03:04.814Z,79.80
2019-05-12T07:05:38.573Z,79.70
2019-05-12T07:08:06.760Z,79.90
2019-05-12T07:10:42.655Z,80.20
2019-05-12T07:13:06.147Z,80.50
2019-05-12T07:15:40.190Z,81.40
2019-05-12T07:18:07.185Z,80.20
2019-05-12T07:20:38.923Z,81.20
2019-05-12T07:23:06.473Z,79.90
2019-05-12T07:25:36.803Z,79.80
2019-05-12T07:28:08.352Z,79.80
2019-05-12T07:30:36.862Z,78.80
2019-05-12T07:33:05.694Z,79.30
2019-05-12T07:35:34.572Z,80.50
2019-05-12T07:38:04.783Z,81.50
2019-05-12T07:40:37.694Z,80.30
2019-05-12T07:43:10.089Z,79.80
2019-05-12T07:45:35.707Z,81.20
2019-05-12T07:48:10.010Z,81.00
2019-05-12T07:50:34.796Z,80.20
2019-05-12T07:53:04.324Z,80.10
2019-05-12T07:55:34.077Z,77.90
2019-05-12T07:58:13.446Z,78.60
2019-05-12T08:00:34.421Z,78.80
2019-05-12T08:03:14.665Z,79.30
2019-05-12T08:05:34.781Z,79.40
2019-05-12T08:08:06.951Z,79.90
2019-05-12T08:10:34.276Z,80.50
2019-05-12T08:13:04.479Z,79.70
2019-05-12T08:15:34.166Z,78.50
2019-05-12T08:18:07.545Z,78.40
2019-05-12T08:20:34.432Z,79.50
2019-05-12T08:23:08.666Z,79.60
2019-05-12T08:25:35.915Z,79.20
2019-05-12T08:28:14.685Z,78.30
2019-05-12T08:30:40.516Z,78.70
2019-05-12T08:33:09.930Z,79.00
2019-05-12T08:35:38.744Z,78.90
2019-05-12T08:38:07.495Z,78.20
2019-05-12T08:40:39.851Z,78.40
2019-05-12T08:43:10.387Z,77.80
2019-05-12T08:45:37.745Z,76.40
2019-05-12T08:48:16.969Z,77.40
2019-05-12T08:50:38.350Z,76.80
2019-05-12T08:53:12.250Z,75.40
2019-05-12T08:55:38.715Z,75.60
2019-05-12T08:58:07.186Z,75.50
2019-05-12T09:00:46.431Z,75.10
2019-05-12T09:03:09.267Z,74.50
2019-05-12T09:05:38.374Z,74.30
2019-05-12T09:08:07.443Z,73.30
2019-05-12T09:10:35.991Z,73.40
2019-05-12T09:13:04.525Z,72.60
2019-05-12T09:15:34.694Z,73.10
2019-05-12T09:18:04.778Z,74.00
2019-05-12T09:20:40.024Z,72.90
2019-05-12T09:23:05.132Z,72.90
2019-05-12T09:25:34.334Z,73.80
2019-05-12T09:28:04.369Z,72.60
2019-05-12T09:30:33.614Z,73.10
2019-05-12T09:33:04.057Z,73.10
2019-05-12T09:35:38.888Z,72.80
2019-05-12T09:38:05.888Z,72.60
2019-05-12T09:40:35.582Z,72.10
2019-05-12T09:43:08.636Z,71.30
2019-05-12T09:45:40.731Z,72.60
2019-05-12T09:48:09.066Z,71.30
2019-05-12T09:50:35.396Z,72.30
2019-05-12T09:53:09.707Z,73.60
2019-05-12T09:55:34.572Z,71.90
2019-05-12T09:58:04.035Z,72.40
2019-05-12T10:00:35.896Z,72.20
2019-05-12T10:03:04.860Z,71.90
2019-05-12T10:05:39.249Z,70.10
2019-05-12T10:08:04.760Z,69.80
2019-05-12T10:10:40.118Z,70.00
2019-05-12T10:13:05.054Z,69.00
2019-05-12T10:15:33.888Z,69.70
2019-05-12T10:18:06.404Z,69.10
2019-05-12T10:20:37.427Z,70.40
2019-05-12T10:23:04.372Z,71.00
2019-05-12T10:25:33.860Z,71.50
2019-05-12T10:28:11.065Z,70.00
2019-05-12T10:30:34.175Z,71.00
2019-05-12T10:33:03.870Z,71.00
2019-05-12T10:35:34.953Z,71.60
2019-05-12T10:38:06.303Z,70.70
2019-05-12T10:40:33.946Z,69.20
2019-05-12T10:43:10.376Z,68.50
2019-05-12T10:45:39.178Z,68.40
2019-05-12T10:48:08.099Z,68.00
2019-05-12T10:50:36.765Z,69.00
2019-05-12T10:53:09.805Z,69.60
2019-05-12T10:55:37.400Z,69.30
2019-05-12T10:58:07.276Z,68.60
2019-05-12T11:00:36.170Z,68.00
2019-05-12T11:03:12.255Z,68.70
2019-05-12T11:05:35.003Z,67.10
2019-05-12T11:08:10.997Z,66.40
2019-05-12T11:10:34.068Z,66.30
2019-05-12T11:13:08.411Z,66.60
2019-05-12T11:15:34.404Z,66.70
2019-05-12T11:18:04.927Z,66.60
2019-05-12T11:20:34.399Z,67.00
2019-05-12T11:23:03.601Z,66.40
2019-05-12T11:25:33.938Z,66.10
2019-05-12T11:28:03.710Z,66.00
2019-05-12T11:30:34.533Z,65.20
2019-05-12T11:33:04.411Z,65.70
2019-05-12T11:35:34.741Z,63.80
2019-05-12T11:38:04.399Z,63.30
2019-05-12T11:40:34.802Z,62.30
2019-05-12T11:43:04.241Z,62.60
2019-05-12T11:45:33.829Z,63.00
2019-05-12T11:48:05.796Z,63.60
2019-05-12T11:50:33.960Z,62.50
2019-05-12T11:53:04.274Z,62.20
2019-05-12T11:55:34.849Z,62.10
2019-05-12T11:58:06.842Z,62.80
2019-05-12T12:00:44.080Z,62.60
2019-05-12T12:03:17.044Z,63.20
2019-05-12T12:05:44.335Z,61.30
2019-05-12T12:08:14.454Z,61.90
2019-05-12T12:10:43.431Z,60.30
2019-05-12T12:13:14.020Z,59.90
2019-05-12T12:15:42.494Z,57.70
2019-05-12T12:18:13.713Z,58.30
2019-05-12T12:20:44.089Z,58.50
2019-05-12T12:23:13.921Z,58.60
2019-05-12T12:25:43.158Z,59.20
2019-05-12T12:28:13.618Z,59.40
2019-05-12T12:30:47.299Z,58.70
2019-05-12T12:33:14.384Z,56.70
2019-05-12T12:35:44.516Z,56.40
2019-05-12T12:38:14.110Z,56.10
2019-05-12T12:40:44.178Z,56.10
2019-05-12T12:43:13.821Z,55.60
2019-05-12T12:45:50.301Z,55.70
2019-05-12T12:48:19.371Z,55.10
2019-05-12T12:50:49.362Z,55.30
2019-05-12T12:53:17.904Z,53.10
2019-05-12T12:55:46.587Z,53.30
2019-05-12T12:58:15.203Z,53.20
2019-05-12T13:00:51.298Z,52.50
2019-05-12T13:03:14.507Z,52.50
2019-05-12T13:05:43.911Z,53.00
2019-05-12T13:08:12.658Z,53.60
2019-05-12T13:10:47.228Z,53.80
2019-05-12T13:13:14.030Z,54.20
2019-05-12T13:15:41.783Z,54.10
2019-05-12T13:18:17.912Z,51.80
2019-05-12T13:20:40.646Z,52.00
2019-05-12T13:23:09.188Z,52.10
2019-05-12T13:25:38.930Z,51.80
2019-05-12T13:28:12.364Z,52.20
2019-05-12T13:30:46.161Z,52.20
2019-05-12T13:33:14.864Z,52.60
2019-05-12T13:35:38.703Z,51.40
2019-05-12T13:38:07.231Z,49.70
2019-05-12T13:40:39.186Z,50.50
2019-05-12T13:43:09.104Z,50.50
2019-05-12T13:45:36.327Z,50.70
2019-05-12T13:48:09.678Z,51.00
2019-05-12T13:50:35.207Z,52.20
2019-05-12T13:53:08.573Z,52.40
2019-05-12T13:55:34.348Z,49.10
2019-05-12T13:58:04.145Z,48.80
2019-05-12T14:00:34.476Z,50.60
2019-05-12T14:03:08.015Z,49.90
2019-05-12T14:05:33.404Z,48.50
2019-05-12T14:08:03.938Z,46.90
2019-05-12T14:10:36.995Z,46.90
2019-05-12T14:13:04.309Z,48.90
2019-05-12T14:15:34.123Z,47.30
2019-05-12T14:18:03.401Z,48.40
2019-05-12T14:20:34.439Z,48.20
2019-05-12T14:23:03.874Z,47.40
2019-05-12T14:25:34.961Z,48.90
2019-05-12T14:28:05.517Z,48.50
2019-05-12T14:30:33.702Z,49.80
2019-05-12T14:33:03.891Z,48.80
2019-05-12T14:35:40.433Z,46.10
2019-05-12T14:38:03.854Z,45.60
2019-05-12T14:40:34.744Z,45.00
2019-05-12T14:43:03.685Z,45.70
2019-05-12T14:45:33.254Z,46.50
2019-05-12T14:48:05.692Z,47.20
2019-05-12T14:50:33.618Z,48.00
2019-05-12T14:53:03.542Z,48.40
2019-05-12T14:55:33.762Z,47.70
2019-05-12T14:58:03.646Z,46.30
2019-05-12T15:00:34.219Z,45.70
2019-05-12T15:03:12.662Z,46.20
2019-05-12T15:05:47.372Z,45.30
2019-05-12T15:08:20.332Z,45.70
2019-05-12T15:10:45.899Z,47.10
2019-05-12T15:13:14.565Z,46.50
2019-05-12T15:15:44.115Z,46.00
2019-05-12T15:18:15.743Z,44.70
2019-05-12T15:20:49.913Z,44.40
2019-05-12T15:23:14.356Z,43.90
2019-05-12T15:25:43.353Z,44.60
2019-05-12T15:28:14.395Z,46.00
2019-05-12T15:30:43.607Z,47.20
2019-05-12T15:33:13.951Z,46.00
2019-05-12T15:35:43.945Z,46.60
2019-05-12T15:38:14.756Z,46.70
2019-05-12T15:40:43.442Z,46.80
2019-05-12T15:43:13.834Z,47.00
2019-05-12T15:45:43.652Z,47.30
2019-05-12T15:48:14.346Z,46.80
2019-05-12T15:50:45.665Z,43.40
2019-05-12T15:53:21.832Z,42.40
2019-05-12T15:55:43.594Z,43.70
2019-05-12T15:58:14.185Z,45.60
2019-05-12T16:00:43.789Z,44.70
2019-05-12T16:03:13.675Z,46.00
2019-05-12T16:05:44.394Z,46.10
2019-05-12T16:08:14.468Z,45.90
2019-05-12T16:10:43.748Z,45.80
2019-05-12T16:13:15.588Z,46.00
2019-05-12T16:15:44.282Z,47.10
2019-05-12T16:18:14.418Z,46.50
2019-05-12T16:20:44.156Z,46.00
2019-05-12T16:23:17.138Z,45.40
2019-05-12T16:25:43.202Z,46.00
2019-05-12T16:28:15.593Z,45.90
2019-05-12T16:30:43.879Z,45.20
2019-05-12T16:33:20.646Z,44.60
2019-05-12T16:35:44.166Z,44.80
2019-05-12T16:38:19.616Z,45.10
2019-05-12T16:40:45.618Z,44.60
2019-05-12T16:43:14.410Z,45.10
2019-05-12T16:45:43.406Z,45.70
2019-05-12T16:48:28.927Z,44.20
2019-05-12T16:50:43.758Z,44.80
2019-05-12T16:53:21.387Z,46.00
2019-05-12T16:55:48.133Z,45.20
2019-05-12T16:58:13.837Z,45.50
2019-05-12T17:00:45.246Z,44.70
2019-05-12T17:03:14.489Z,44.50
2019-05-12T17:05:43.518Z,44.50
2019-05-12T17:08:13.884Z,44.00
2019-05-12T17:10:46.994Z,44.90
2019-05-12T17:13:15.719Z,44.20
2019-05-12T17:15:43.432Z,44.30
2019-05-12T17:18:13.578Z,43.70
2019-05-12T17:20:47.016Z,43.70
2019-05-12T17:23:13.906Z,43.90
2019-05-12T17:25:42.637Z,43.80
2019-05-12T17:28:13.194Z,43.70
2019-05-12T17:30:43.559Z,43.80
2019-05-12T17:33:13.447Z,43.30
2019-05-12T17:35:44.503Z,44.00
2019-05-12T17:38:20.055Z,42.50
2019-05-12T17:40:44.101Z,42.20
2019-05-12T17:43:13.103Z,42.70
2019-05-12T17:45:44.145Z,41.70
2019-05-12T17:48:14.048Z,42.80
2019-05-12T17:50:46.653Z,42.30
2019-05-12T17:53:13.806Z,43.10
2019-05-12T17:55:51.011Z,43.00
2019-05-12T17:58:13.840Z,43.00
2019-05-12T18:00:49.951Z,43.20
2019-05-12T18:03:21.293Z,43.30
2019-05-12T18:05:47.909Z,43.10
2019-05-12T18:08:14.296Z,43.20
2019-05-12T18:10:43.723Z,43.20
2019-05-12T18:13:17.511Z,43.80
2019-05-12T18:15:44.185Z,43.20
2019-05-12T18:18:15.348Z,43.10
2019-05-12T18:20:44.547Z,43.40
2019-05-12T18:23:14.502Z,44.20
2019-05-12T18:25:44.252Z,44.60
2019-05-12T18:28:14.019Z,44.80
2019-05-12T18:30:43.057Z,45.00
2019-05-12T18:33:13.732Z,44.60
2019-05-12T18:35:43.967Z,45.10
2019-05-12T18:38:18.237Z,45.90
2019-05-12T18:40:43.317Z,46.50
2019-05-12T18:43:14.180Z,46.30
2019-05-12T18:45:42.820Z,47.00
2019-05-12T18:48:19.883Z,47.90
2019-05-12T18:50:44.250Z,47.40
2019-05-12T18:53:14.843Z,47.70
2019-05-12T18:55:44.227Z,47.80
2019-05-12T18:58:14.853Z,48.40
2019-05-12T19:00:43.713Z,48.00
2019-05-12T19:03:14.076Z,48.20
2019-05-12T19:05:43.749Z,47.20
2019-05-12T19:08:14.030Z,46.60
2019-05-12T19:10:44.392Z,46.90
2019-05-12T19:13:13.122Z,46.70
2019-05-12T19:15:43.965Z,47.20
2019-05-12T19:18:17.914Z,47.60
2019-05-12T19:20:43.332Z,47.90
2019-05-12T19:23:14.218Z,47.60
2019-05-12T19:25:43.667Z,47.10
2019-05-12T19:28:13.492Z,47.60
2019-05-12T19:30:43.871Z,47.70
2019-05-12T19:33:13.550Z,47.70
2019-05-12T19:35:42.427Z,48.00
2019-05-12T19:38:15.140Z,47.80
2019-05-12T19:40:47.215Z,48.20
2019-05-12T19:43:14.205Z,48.60
2019-05-12T19:45:44.098Z,48.30
2019-05-12T19:48:23.988Z,48.70
2019-05-12T19:50:44.374Z,48.60
2019-05-12T19:53:13.483Z,48.70
2019-05-12T19:55:44.069Z,48.90
2019-05-12T19:58:12.721Z,49.20
2019-05-12T20:00:43.644Z,49.60
2019-05-12T20:03:13.897Z,49.80
2019-05-12T20:05:43.376Z,50.20
2019-05-12T20:08:13.651Z,50.40
2019-05-12T20:10:49.241Z,50.80
2019-05-12T20:13:13.834Z,51.10
2019-05-12T20:15:43.661Z,51.20
2019-05-12T20:18:14.727Z,51.60
2019-05-12T20:20:44.760Z,52.00
2019-05-12T20:23:14.105Z,52.30
2019-05-12T20:25:44.295Z,52.50
2019-05-12T20:28:14.497Z,52.60
2019-05-12T20:30:44.159Z,52.90
2019-05-12T20:33:13.665Z,53.10
2019-05-12T20:35:47.328Z,53.10
2019-05-12T20:38:14.750Z,52.90
2019-05-12T20:40:44.009Z,53.20
2019-05-12T20:43:14.686Z,53.70
2019-05-12T20:45:45.520Z,53.90
2019-05-12T20:48:14.434Z,54.20
2019-05-12T20:50:43.605Z,54.40
2019-05-12T20:53:14.280Z,54.70
2019-05-12T20:55:44.298Z,54.90
2019-05-12T20:58:13.592Z,54.30
2019-05-12T21:00:49.810Z,54.20
2019-05-12T21:03:14.544Z,54.30
2019-05-12T21:05:44.107Z,54.00
2019-05-12T21:08:15.285Z,54.20
2019-05-12T21:10:43.761Z,54.30
2019-05-12T21:13:14.685Z,54.40
2019-05-12T21:15:45.646Z,54.90
2019-05-12T21:18:14.639Z,54.90
2019-05-12T21:20:46.419Z,55.00
2019-05-12T21:23:14.276Z,55.70
2019-05-12T21:25:52.088Z,56.80
2019-05-12T21:28:14.866Z,57.50
2019-05-12T21:30:48.192Z,57.90
2019-05-12T21:33:14.736Z,57.70
2019-05-12T21:35:46.144Z,57.50
2019-05-12T21:38:18.758Z,57.50
2019-05-12T21:40:44.265Z,56.90
2019-05-12T21:43:13.536Z,57.40
2019-05-12T21:45:42.490Z,58.50
2019-05-12T21:48:15.093Z,59.40
2019-05-12T21:50:41.471Z,59.60
2019-05-12T21:53:16.240Z,59.80
2019-05-12T21:55:40.403Z,59.80
2019-05-12T21:58:12.035Z,60.00
2019-05-12T22:00:44.967Z,60.30
2019-05-12T22:03:15.555Z,60.90
2019-05-12T22:05:51.683Z,62.10
2019-05-12T22:08:20.773Z,62.70
2019-05-12T22:10:46.027Z,62.90
2019-05-12T22:13:17.680Z,62.90
2019-05-12T22:15:44.848Z,63.20
2019-05-12T22:18:13.579Z,63.10
2019-05-12T22:20:46.115Z,63.40
2019-05-12T22:23:14.984Z,63.50
2019-05-12T22:25:43.573Z,63.60
2019-05-12T22:28:13.448Z,63.10
2019-05-12T22:30:43.772Z,63.50
2019-05-12T22:33:13.781Z,63.50
2019-05-12T22:35:44.370Z,64.00
2019-05-12T22:38:16.580Z,65.20
2019-05-12T22:40:43.440Z,65.00
2019-05-12T22:43:14.024Z,65.20
2019-05-12T22:45:44.340Z,66.40
2019-05-12T22:48:12.389Z,65.70
2019-05-12T22:50:43.317Z,65.20
2019-05-12T22:53:13.217Z,65.90
2019-05-12T22:55:41.430Z,66.50
2019-05-12T22:58:20.713Z,66.20
2019-05-12T23:00:40.465Z,66.10
2019-05-12T23:03:11.674Z,66.30
2019-05-12T23:05:39.235Z,66.30
2019-05-12T23:08:08.517Z,66.90
2019-05-12T23:10:41.489Z,67.10
2019-05-12T23:13:07.491Z,67.40
2019-05-12T23:15:38.810Z,67.30
2019-05-12T23:18:06.719Z,67.70
2019-05-12T23:20:35.776Z,67.90
2019-05-12T23:23:09.008Z,68.00
2019-05-12T23:25:34.906Z,68.50
2019-05-12T23:28:06.776Z,68.50
2019-05-12T23:30:34.028Z,69.10
2019-05-12T23:33:03.932Z,69.50
2019-05-12T23:35:34.921Z,69.70
2019-05-12T23:38:04.457Z,70.10
2019-05-12T23:40:34.493Z,70.30
2019-05-12T23:43:04.206Z,70.30
2019-05-12T23:45:33.959Z,70.60
2019-05-12T23:48:03.751Z,70.40
2019-05-12T23:50:32.803Z,69.70
2019-05-12T23:53:03.644Z,70.10
2019-05-12T23:55:34.683Z,72.50
2019-05-12T23:58:04.265Z,74.00
